Maple Ridge, Canada
Current Conditions -  °F | °C
As of 11:00 AM on Monday 22 Dec 2014 (Local Time) from CYXX Reporting Station
Broken Clouds Broken Clouds  
Wind Chill: 45°   Ceiling: 22000
Heat Index: 45°   Visibility: 25mi
Dew Point: 41°   Wind: 3mph
Humidity: 87%   Direction: 240°WSW
Pressure: 30.35"   Gusts: NA
Location:  49.22°N, 122.6°W
Report Text: CYXX 221900Z 24003KT 25SM FEW050 SCT140 BKN220 07/05 A3035 RMK SC1AC4CI2 SC TR SLP278
Loading
Personal Weather Stations






























Interactive Weather Map New forecast layout! Learn more

10-Day Weather Forecast

Advertisements
Track Severe Weather on mobile